Time;durP1;ratioP1;P1;durP2;ratioP2;P2;SDS_P1;SDS_P2;PMS_P1;PMS_P2;Temp;Humidity;BMP_temperature;BMP_pressure;BME280_temperature;BME280_humidity;BME280_pressure;Samples;Min_cycle;Max_cycle;Signal;HPM_P1;HPM_P2
2023/05/09 00:01:52;;;;;;;42.08;21.35;;;;;;;12.09;100.00;101864.81;5134040;27;20062;-72
2023/05/09 00:04:18;;;;;;;42.10;22.67;;;;;;;12.15;100.00;101863.44;5133964;28;20451;-72
2023/05/09 00:06:44;;;;;;;47.17;22.88;;;;;;;12.22;100.00;101855.81;5133556;27;20027;-72
2023/05/09 00:09:10;;;;;;;40.33;22.33;;;;;;;12.30;100.00;101864.88;5132613;28;20031;-74
2023/05/09 00:11:35;;;;;;;39.03;23.08;;;;;;;12.34;100.00;101863.63;5134228;27;20555;-70
2023/05/09 00:14:02;;;;;;;45.95;24.02;;;;;;;12.40;100.00;101858.78;5133807;27;20355;-71
2023/05/09 00:16:27;;;;;;;39.50;22.67;;;;;;;12.46;100.00;101852.94;5133810;27;20031;-71
2023/05/09 00:18:53;;;;;;;42.45;22.60;;;;;;;12.49;100.00;101848.19;5133808;27;20118;-71
2023/05/09 00:21:18;;;;;;;45.55;22.27;;;;;;;12.55;100.00;101854.00;5133751;27;20078;-72
2023/05/09 00:23:46;;;;;;;45.22;22.63;;;;;;;12.58;100.00;101843.06;5134519;28;20042;-71
2023/05/09 00:26:11;;;;;;;37.28;21.20;;;;;;;12.61;100.00;101840.16;5133762;27;20052;-72
2023/05/09 00:28:37;;;;;;;40.47;21.55;;;;;;;12.63;100.00;101838.19;5133846;27;20459;-72
2023/05/09 00:31:03;;;;;;;38.67;20.88;;;;;;;12.65;100.00;101834.41;5134067;27;20038;-72
2023/05/09 00:33:28;;;;;;;33.70;20.08;;;;;;;12.66;100.00;101827.28;5133806;27;20062;-72
2023/05/09 00:35:54;;;;;;;37.05;20.08;;;;;;;12.68;100.00;101825.31;5134291;27;20131;-72
2023/05/09 00:38:19;;;;;;;36.33;19.98;;;;;;;12.69;100.00;101819.00;5134174;28;20030;-72
2023/05/09 00:40:45;;;;;;;33.80;18.77;;;;;;;12.71;100.00;101817.03;5133587;28;20379;-72
2023/05/09 00:43:10;;;;;;;35.13;19.63;;;;;;;12.73;100.00;101820.41;5133518;28;20121;-72
2023/05/09 00:45:36;;;;;;;34.47;19.08;;;;;;;12.75;100.00;101809.59;5132654;28;20031;-72
2023/05/09 00:48:01;;;;;;;36.40;18.88;;;;;;;12.76;100.00;101811.31;5133481;27;20035;-72
2023/05/09 00:50:27;;;;;;;35.95;19.65;;;;;;;12.77;100.00;101805.00;5133281;27;20035;-72
2023/05/09 00:52:52;;;;;;;39.10;19.20;;;;;;;12.79;100.00;101805.72;5133404;27;20108;-72
2023/05/09 00:55:18;;;;;;;31.35;18.30;;;;;;;12.81;100.00;101803.78;5133923;28;20034;-72
2023/05/09 00:57:44;;;;;;;30.90;18.27;;;;;;;12.81;100.00;101795.75;5133858;27;20051;-72
2023/05/09 01:00:13;;;;;;;27.23;17.48;;;;;;;12.83;100.00;101791.97;5133458;27;20062;-72
2023/05/09 01:02:45;;;;;;;35.60;18.05;;;;;;;12.86;100.00;101788.19;5131990;28;20139;-72
2023/05/09 01:05:11;;;;;;;30.00;17.80;;;;;;;12.85;100.00;101783.81;5133445;27;20087;-72
2023/05/09 01:07:49;;;;;;;29.83;17.25;;;;;;;12.83;100.00;101778.59;5133781;27;20031;-72
2023/05/09 01:10:14;;;;;;;30.38;17.48;;;;;;;12.80;100.00;101780.72;5133947;27;20038;-72
2023/05/09 01:13:03;;;;;;;31.63;17.58;;;;;;;12.75;100.00;101773.09;5132900;28;20027;-72
2023/05/09 01:15:47;;;;;;;29.52;16.77;;;;;;;12.72;100.00;101769.81;5133644;27;20148;-72
2023/05/09 01:18:43;;;;;;;30.85;17.40;;;;;;;12.67;100.00;101762.19;5134629;27;20134;-72
2023/05/09 01:21:18;;;;;;;28.02;17.55;;;;;;;12.65;100.00;101761.50;5136614;27;20020;-72
2023/05/09 01:23:44;;;;;;;32.50;17.77;;;;;;;12.62;100.00;101759.09;5135972;27;20023;-72
2023/05/09 01:26:31;;;;;;;28.60;16.67;;;;;;;12.58;100.00;101757.66;5136936;27;20100;-71
2023/05/09 01:29:09;;;;;;;33.53;17.50;;;;;;;12.55;100.00;101750.72;5137019;27;20077;-72
2023/05/09 01:31:39;;;;;;;30.70;17.55;;;;;;;12.56;100.00;101748.94;5137003;27;20057;-72
2023/05/09 01:34:08;;;;;;;35.17;17.13;;;;;;;12.55;100.00;101740.06;5137014;27;20027;-72
2023/05/09 01:36:36;;;;;;;34.28;17.15;;;;;;;12.55;100.00;101744.56;5137087;27;20027;-71
2023/05/09 01:39:03;;;;;;;28.95;17.30;;;;;;;12.54;100.00;101743.72;5137097;27;20474;-71
2023/05/09 01:41:33;;;;;;;29.20;15.48;;;;;;;12.53;100.00;101739.34;5136470;27;20043;-72
2023/05/09 01:44:02;;;;;;;26.45;15.23;;;;;;;12.56;100.00;101738.25;5136573;27;20033;-72
2023/05/09 01:46:28;;;;;;;28.80;16.52;;;;;;;12.56;100.00;101732.91;5136377;27;20034;-72
2023/05/09 01:48:56;;;;;;;29.50;15.73;;;;;;;12.57;100.00;101732.78;5136083;27;20070;-73
2023/05/09 01:51:23;;;;;;;28.85;15.20;;;;;;;12.57;100.00;101724.78;5136048;27;20081;-74
2023/05/09 01:53:51;;;;;;;27.30;15.60;;;;;;;12.57;100.00;101730.13;5136074;27;20046;-72
2023/05/09 01:56:17;;;;;;;28.00;15.10;;;;;;;12.59;100.00;101721.97;5136917;27;20034;-72
2023/05/09 01:58:47;;;;;;;24.50;14.65;;;;;;;12.58;100.00;101712.25;5135795;27;20126;-72
2023/05/09 02:01:13;;;;;;;26.95;14.75;;;;;;;12.57;100.00;101718.56;5135869;27;20394;-72
2023/05/09 02:03:39;;;;;;;31.63;14.52;;;;;;;12.53;100.00;101710.81;5135866;27;20497;-72
2023/05/09 02:06:05;;;;;;;27.23;15.35;;;;;;;12.52;100.00;101716.28;5135858;27;20483;-72
2023/05/09 02:08:31;;;;;;;27.65;14.52;;;;;;;12.51;100.00;101703.94;5136005;27;20463;-72
2023/05/09 02:10:57;;;;;;;27.02;15.90;;;;;;;12.47;100.00;101708.69;5135951;27;20030;-72
2023/05/09 02:13:23;;;;;;;28.63;13.85;;;;;;;12.47;100.00;101703.34;5136352;27;20511;-72
2023/05/09 02:15:49;;;;;;;24.10;14.52;;;;;;;12.45;100.00;101696.44;5135637;27;20067;-72
2023/05/09 02:18:15;;;;;;;21.80;13.73;;;;;;;12.43;100.00;101696.56;5135908;27;20084;-72
2023/05/09 02:20:41;;;;;;;33.20;14.88;;;;;;;12.43;100.00;101695.72;5135836;27;20110;-72
2023/05/09 02:23:07;;;;;;;25.80;13.57;;;;;;;12.41;100.00;101697.69;5135865;27;20439;-72
2023/05/09 02:25:33;;;;;;;20.92;13.82;;;;;;;12.41;100.00;101700.38;5134424;27;20118;-72
2023/05/09 02:28:00;;;;;;;24.27;13.60;;;;;;;12.40;100.00;101693.31;5135765;27;20328;-72
2023/05/09 02:30:29;;;;;;;24.63;14.35;;;;;;;12.42;100.00;101691.34;5135363;27;20023;-71
2023/05/09 02:33:01;;;;;;;23.83;13.23;;;;;;;12.42;100.00;101691.34;5135631;27;20031;-72
2023/05/09 02:35:27;;;;;;;28.23;14.18;;;;;;;12.43;100.00;101695.72;5136373;27;20029;-73
2023/05/09 02:37:53;;;;;;;21.95;12.73;;;;;;;12.43;100.00;101690.38;5135689;27;20483;-73
2023/05/09 02:40:20;;;;;;;23.67;12.80;;;;;;;12.45;100.00;101688.44;5135843;27;20038;-72
2023/05/09 02:42:45;;;;;;;23.13;13.02;;;;;;;12.44;100.00;101681.41;5135357;27;20062;-72
2023/05/09 02:45:11;;;;;;;22.63;12.30;;;;;;;12.45;100.00;101683.97;5135910;27;20444;-72
2023/05/09 02:47:38;;;;;;;24.67;13.02;;;;;;;12.47;100.00;101686.50;5135112;27;20096;-72
2023/05/09 02:50:04;;;;;;;23.98;13.32;;;;;;;12.44;100.00;101686.75;5135387;27;20102;-71
2023/05/09 02:52:30;;;;;;;23.73;12.05;;;;;;;12.45;100.00;101683.09;5133822;27;20482;-72
2023/05/09 02:54:55;;;;;;;22.45;11.82;;;;;;;12.43;100.00;101680.56;5134864;27;20054;-72
2023/05/09 02:57:21;;;;;;;21.02;12.43;;;;;;;12.42;100.00;101668.19;5134526;27;20363;-72
2023/05/09 02:59:46;;;;;;;24.10;12.60;;;;;;;12.42;100.00;101665.53;5135945;27;20138;-72
2023/05/09 03:02:12;;;;;;;24.55;12.88;;;;;;;12.43;100.00;101666.38;5135490;27;20030;-72
2023/05/09 03:04:37;;;;;;;23.98;12.48;;;;;;;12.43;100.00;101666.38;5135135;27;20114;-72
2023/05/09 03:07:03;;;;;;;21.80;12.18;;;;;;;12.42;100.00;101659.34;5135096;27;20034;-72
2023/05/09 03:09:28;;;;;;;21.95;12.38;;;;;;;12.42;100.00;101662.00;5133782;27;20172;-72
2023/05/09 03:11:55;;;;;;;20.83;12.05;;;;;;;12.41;100.00;101661.16;5133566;27;20046;-72
2023/05/09 03:14:20;;;;;;;21.10;12.38;;;;;;;12.41;100.00;101660.34;5135565;27;20031;-72
2023/05/09 03:16:45;;;;;;;21.50;12.40;;;;;;;12.41;100.00;101655.00;5135112;27;20418;-72
2023/05/09 03:19:11;;;;;;;23.25;12.93;;;;;;;12.40;100.00;101651.47;5135155;27;20084;-72
2023/05/09 03:21:36;;;;;;;24.15;12.40;;;;;;;12.40;100.00;101645.28;5134933;27;20031;-72
2023/05/09 03:24:03;;;;;;;22.15;13.55;;;;;;;12.39;100.00;101640.91;5134971;27;20038;-74
2023/05/09 03:26:29;;;;;;;24.45;13.50;;;;;;;12.40;100.00;101638.13;5134200;27;20039;-73
2023/05/09 03:28:54;;;;;;;21.15;12.48;;;;;;;12.40;100.00;101631.94;5135157;27;20508;-74
2023/05/09 03:31:19;;;;;;;23.08;12.40;;;;;;;12.40;100.00;101635.44;5134678;27;20038;-72
2023/05/09 03:33:45;;;;;;;25.90;13.02;;;;;;;12.41;100.00;101626.47;5134310;27;20407;-72
2023/05/09 03:36:10;;;;;;;23.17;12.80;;;;;;;12.42;100.00;101613.97;5134837;27;20030;-72
2023/05/09 03:38:36;;;;;;;28.02;13.95;;;;;;;12.41;100.00;101615.78;5134247;27;20027;-72
2023/05/09 03:41:01;;;;;;;22.23;12.85;;;;;;;12.42;100.00;101616.63;5133941;27;20023;-72
2023/05/09 03:43:26;;;;;;;21.85;12.15;;;;;;;12.43;100.00;101605.81;5134494;27;20371;-72
2023/05/09 03:45:52;;;;;;;23.25;12.73;;;;;;;12.44;100.00;101610.19;5133195;27;20033;-72
2023/05/09 03:48:17;;;;;;;27.13;12.45;;;;;;;12.45;100.00;101611.03;5133820;27;20079;-72
2023/05/09 03:50:43;;;;;;;24.23;11.93;;;;;;;12.46;100.00;101604.72;5132544;27;20027;-72
2023/05/09 03:53:08;;;;;;;22.75;12.27;;;;;;;12.46;100.00;101599.38;5132405;27;20110;-71
2023/05/09 03:55:34;;;;;;;22.75;12.23;;;;;;;12.46;100.00;101599.38;5134319;27;20058;-72
2023/05/09 03:57:59;;;;;;;23.60;12.43;;;;;;;12.48;100.00;101594.75;5133880;27;20047;-72
2023/05/09 04:00:28;;;;;;;25.33;13.32;;;;;;;12.48;100.00;101598.28;5134286;27;20019;-73
2023/05/09 04:02:53;;;;;;;23.60;12.10;;;;;;;12.49;100.00;101583.94;5133852;27;20042;-72
2023/05/09 04:05:19;;;;;;;20.63;12.02;;;;;;;12.47;100.00;101582.41;5134020;27;20023;-72
2023/05/09 04:07:44;;;;;;;23.65;12.65;;;;;;;12.47;100.00;101585.06;5133327;28;20038;-72
2023/05/09 04:10:10;;;;;;;20.48;12.30;;;;;;;12.49;100.00;101580.44;5133934;27;20030;-72
2023/05/09 04:12:36;;;;;;;20.88;11.77;;;;;;;12.49;100.00;101580.44;5132632;28;20058;-72
2023/05/09 04:15:01;;;;;;;23.75;12.45;;;;;;;12.49;100.00;101581.25;5133445;27;20019;-72
2023/05/09 04:17:27;;;;;;;21.13;12.65;;;;;;;12.50;100.00;101574.97;5133919;28;20039;-72
2023/05/09 04:19:52;;;;;;;23.92;13.50;;;;;;;12.52;100.00;101572.16;5133796;27;20520;-72
2023/05/09 04:22:17;;;;;;;23.23;13.43;;;;;;;12.51;100.00;101565.97;5134102;27;20127;-72
2023/05/09 04:24:43;;;;;;;20.15;12.52;;;;;;;12.56;100.00;101568.25;5133452;28;20035;-72
2023/05/09 04:27:08;;;;;;;20.95;12.60;;;;;;;12.59;100.00;101575.97;5134109;27;20027;-72
2023/05/09 04:29:34;;;;;;;18.67;12.68;;;;;;;12.61;100.00;101574.00;5134101;27;20023;-73
2023/05/09 04:32:00;;;;;;;24.38;13.73;;;;;;;12.60;100.00;101575.00;5133454;28;20027;-73
2023/05/09 04:34:26;;;;;;;26.75;14.30;;;;;;;12.58;100.00;101568.09;5134155;27;20035;-73
2023/05/09 04:36:52;;;;;;;27.17;14.32;;;;;;;12.53;100.00;101576.53;5133647;27;20023;-73
2023/05/09 04:39:18;;;;;;;27.27;14.23;;;;;;;12.48;100.00;101576.06;5133745;27;20054;-73
2023/05/09 04:41:46;;;;;;;26.08;14.00;;;;;;;12.41;100.00;101570.44;5133509;27;20046;-73
2023/05/09 04:44:15;;;;;;;31.10;15.07;;;;;;;12.33;100.00;101565.75;5133800;27;20039;-73
2023/05/09 04:46:40;;;;;;;27.48;15.18;;;;;;;12.27;100.00;101560.09;5132177;28;20038;-70
2023/05/09 04:49:06;;;;;;;29.98;15.88;;;;;;;12.21;100.00;101557.97;5115421;28;20027;-72
2023/05/09 04:51:31;;;;;;;31.20;16.33;;;;;;;12.17;100.00;101557.38;5132018;27;20368;-72
2023/05/09 04:53:57;;;;;;;31.30;16.90;;;;;;;12.13;100.00;101548.78;5137039;27;20042;-70
2023/05/09 04:56:22;;;;;;;31.33;16.45;;;;;;;12.10;100.00;101545.56;5137250;27;20119;-71
2023/05/09 04:58:48;;;;;;;34.05;16.73;;;;;;;12.07;100.00;101545.81;5136909;27;20130;-71
2023/05/09 05:01:13;;;;;;;29.90;16.23;;;;;;;12.03;100.00;101534.53;5137592;27;20115;-71
2023/05/09 05:03:39;;;;;;;31.27;16.10;;;;;;;12.04;100.00;101541.59;5137274;27;20080;-71
2023/05/09 05:06:05;;;;;;;40.63;17.73;;;;;;;12.02;100.00;101532.00;5137920;27;20031;-72
2023/05/09 05:08:31;;;;;;;37.22;18.48;;;;;;;12.02;100.00;101532.88;5137011;27;20034;-72
2023/05/09 05:10:56;;;;;;;35.60;18.20;;;;;;;12.03;100.00;101529.22;5136884;27;20035;-72
2023/05/09 05:13:21;;;;;;;35.42;17.30;;;;;;;12.02;100.00;101522.22;5137224;27;20035;-71
2023/05/09 05:15:47;;;;;;;36.85;17.90;;;;;;;12.04;100.00;101527.41;5137155;27;20390;-72
2023/05/09 05:18:12;;;;;;;36.13;17.77;;;;;;;12.04;100.00;101530.06;5137232;27;20036;-71
2023/05/09 05:20:40;;;;;;;36.38;18.27;;;;;;;12.05;100.00;101526.44;5135879;27;20035;-71
2023/05/09 05:23:05;;;;;;;29.10;16.02;;;;;;;12.01;100.00;101523.19;5137340;27;20083;-71
2023/05/09 05:25:31;;;;;;;34.35;17.80;;;;;;;12.02;100.00;101518.69;5135748;27;20035;-72
2023/05/09 05:27:56;;;;;;;35.15;17.13;;;;;;;12.01;100.00;101514.34;5136949;27;20027;-71
2023/05/09 05:30:22;;;;;;;41.53;17.40;;;;;;;12.01;100.00;101511.66;5136670;27;20031;-72
2023/05/09 05:32:47;;;;;;;32.42;16.40;;;;;;;12.03;100.00;101515.03;5136641;27;20039;-74
2023/05/09 05:35:13;;;;;;;39.08;18.40;;;;;;;12.02;100.00;101511.53;5136450;27;20068;-72
2023/05/09 05:37:39;;;;;;;33.92;16.73;;;;;;;12.03;100.00;101510.53;5135009;27;20065;-73
2023/05/09 05:40:05;;;;;;;35.05;17.40;;;;;;;12.03;100.00;101507.88;5136373;27;20039;-70
2023/05/09 05:42:31;;;;;;;31.30;15.68;;;;;;;12.03;100.00;101504.38;5136803;27;20027;-71
2023/05/09 05:44:56;;;;;;;29.88;15.15;;;;;;;12.03;100.00;101513.22;5136357;27;20438;-72
2023/05/09 05:47:22;;;;;;;32.47;15.85;;;;;;;12.03;100.00;101504.38;5135950;27;20050;-72
2023/05/09 05:49:47;;;;;;;29.00;15.23;;;;;;;12.03;100.00;101510.53;5136287;27;20059;-71
2023/05/09 05:52:13;;;;;;;30.10;15.48;;;;;;;12.04;100.00;101511.41;5135812;27;20372;-72
2023/05/09 05:54:39;;;;;;;33.35;16.05;;;;;;;12.04;100.00;101495.41;5135754;27;20030;-74
2023/05/09 05:57:04;;;;;;;29.52;15.65;;;;;;;12.07;100.00;101498.63;5135761;27;20027;-73
2023/05/09 05:59:29;;;;;;;30.30;15.80;;;;;;;12.08;100.00;101491.50;5136447;27;20054;-75
2023/05/09 06:01:55;;;;;;;30.92;15.95;;;;;;;12.08;100.00;101494.16;5135993;27;20026;-73
2023/05/09 06:04:20;;;;;;;33.10;16.35;;;;;;;12.10;100.00;101487.69;5134941;27;20394;-72
2023/05/09 06:06:46;;;;;;;30.30;16.05;;;;;;;12.12;100.00;101499.09;5135451;27;20054;-73
2023/05/09 06:09:11;;;;;;;29.90;15.52;;;;;;;12.11;100.00;101489.41;5135720;27;20056;-73
2023/05/09 06:11:38;;;;;;;31.98;16.58;;;;;;;12.13;100.00;101487.44;5136505;27;20032;-72
2023/05/09 06:14:03;;;;;;;27.35;15.05;;;;;;;12.14;100.00;101481.13;5135672;27;20027;-71
2023/05/09 06:16:29;;;;;;;28.83;14.88;;;;;;;12.14;100.00;101482.97;5136160;27;20383;-71
2023/05/09 06:18:54;;;;;;;29.92;15.88;;;;;;;12.16;100.00;101473.00;5136107;27;20492;-72
2023/05/09 06:21:19;;;;;;;33.22;15.07;;;;;;;12.17;100.00;101467.53;5135916;27;20035;-71
2023/05/09 06:23:45;;;;;;;30.38;15.70;;;;;;;12.19;100.00;101474.56;5134819;27;20035;-72
2023/05/09 06:26:11;;;;;;;31.15;15.68;;;;;;;12.17;100.00;101480.84;5135402;27;20031;-72
2023/05/09 06:28:36;;;;;;;26.73;13.82;;;;;;;12.16;100.00;101471.16;5134428;27;20178;-72
2023/05/09 06:31:02;;;;;;;27.30;14.07;;;;;;;12.14;100.00;101474.97;5136123;27;20035;-73
2023/05/09 06:33:27;;;;;;;27.02;14.63;;;;;;;12.13;100.00;101470.59;5136118;27;20031;-72
2023/05/09 06:35:52;;;;;;;31.08;16.10;;;;;;;12.10;100.00;101463.69;5135701;27;20031;-72
2023/05/09 06:38:18;;;;;;;34.47;15.63;;;;;;;12.12;100.00;101467.09;5135253;27;20035;-72
2023/05/09 06:40:43;;;;;;;30.40;15.10;;;;;;;12.11;100.00;101460.06;5135830;27;20031;-72
2023/05/09 06:43:08;;;;;;;30.63;14.73;;;;;;;12.14;100.00;101458.94;5134239;27;20039;-71
2023/05/09 06:45:34;;;;;;;29.10;13.85;;;;;;;12.13;100.00;101458.09;5134881;27;20039;-71
2023/05/09 06:48:00;;;;;;;26.23;13.80;;;;;;;12.11;100.00;101456.56;5135382;27;20028;-72
2023/05/09 06:50:25;;;;;;;26.35;12.88;;;;;;;12.12;100.00;101451.09;5135433;27;20458;-72
2023/05/09 06:52:50;;;;;;;24.00;12.13;;;;;;;12.06;100.00;101451.63;5135307;27;20466;-72
2023/05/09 06:55:16;;;;;;;25.00;11.82;;;;;;;12.01;100.00;101448.50;5134036;27;20491;-72
2023/05/09 06:57:41;;;;;;;22.65;11.77;;;;;;;12.00;100.00;101441.47;5135861;27;20038;-73
2023/05/09 07:00:08;;;;;;;24.02;12.38;;;;;;;12.02;100.00;101444.88;5135305;27;20047;-73
2023/05/09 07:02:34;;;;;;;21.02;10.95;;;;;;;11.99;100.00;101434.47;5135159;27;20058;-73
2023/05/09 07:04:59;;;;;;;20.98;11.00;;;;;;;11.96;100.00;101430.25;5135027;27;20038;-73
2023/05/09 07:07:24;;;;;;;22.00;11.23;;;;;;;11.96;100.00;101429.41;5135143;27;20038;-74
2023/05/09 07:09:50;;;;;;;21.02;10.10;;;;;;;11.97;100.00;101426.59;5135069;27;20507;-73
2023/05/09 07:12:15;;;;;;;21.15;10.02;;;;;;;11.97;100.00;101421.25;5134758;27;20031;-74
2023/05/09 07:14:41;;;;;;;17.90;9.35;;;;;;;11.94;100.00;101418.88;5134739;27;20483;-73
2023/05/09 07:17:07;;;;;;;14.80;8.35;;;;;;;11.95;100.00;101414.38;5137231;27;20039;-73
2023/05/09 07:19:33;;;;;;;16.27;7.88;;;;;;;11.95;100.00;101406.38;5134487;27;20027;-74
2023/05/09 07:21:58;;;;;;;16.05;8.40;;;;;;;12.00;100.00;101396.13;5134822;27;20038;-73
2023/05/09 07:24:23;;;;;;;14.45;7.85;;;;;;;12.04;100.00;101397.56;5134898;27;20121;-74
2023/05/09 07:26:49;;;;;;;13.95;8.00;;;;;;;12.08;100.00;101400.81;5134426;27;20519;-73
2023/05/09 07:29:14;;;;;;;14.50;7.43;;;;;;;12.08;100.00;101392.81;5133906;27;20027;-72
2023/05/09 07:31:40;;;;;;;15.10;7.57;;;;;;;12.02;100.00;101390.66;5134793;27;20035;-73
2023/05/09 07:34:05;;;;;;;12.98;7.55;;;;;;;12.08;100.00;101390.16;5134141;27;20423;-73
2023/05/09 07:36:31;;;;;;;12.05;7.40;;;;;;;12.10;100.00;101388.19;5134203;27;20028;-73
2023/05/09 07:38:57;;;;;;;13.50;7.43;;;;;;;12.10;100.00;101382.84;5134395;27;20091;-73
2023/05/09 07:41:22;;;;;;;18.33;7.70;;;;;;;12.11;100.00;101373.88;5134388;27;20118;-72
2023/05/09 07:43:47;;;;;;;12.88;7.15;;;;;;;12.14;100.00;101363.75;5134116;27;20039;-73
2023/05/09 07:46:13;;;;;;;13.65;7.40;;;;;;;12.12;100.00;101368.41;5133782;27;20039;-74
2023/05/09 07:48:38;;;;;;;12.20;7.53;;;;;;;12.20;100.00;101365.03;5133784;27;20031;-73
2023/05/09 07:51:04;;;;;;;13.55;6.80;;;;;;;12.23;100.00;101366.59;5133886;27;20500;-74
2023/05/09 07:53:29;;;;;;;12.10;7.10;;;;;;;12.23;100.00;101367.44;5133946;27;20039;-73
2023/05/09 07:55:54;;;;;;;13.35;7.40;;;;;;;12.21;100.00;101356.06;5133820;27;20042;-74
2023/05/09 07:58:20;;;;;;;13.23;7.55;;;;;;;12.16;100.00;101355.63;5133610;27;20043;-74
2023/05/09 08:00:45;;;;;;;11.55;7.57;;;;;;;12.15;100.00;101351.25;5132797;27;20027;-74
2023/05/09 08:03:10;;;;;;;13.20;8.00;;;;;;;12.18;100.00;101334.97;5133860;27;20039;-74
2023/05/09 08:05:36;;;;;;;13.57;8.18;;;;;;;12.29;100.00;101344.69;5134156;27;20034;-74
2023/05/09 08:08:01;;;;;;;14.07;8.68;;;;;;;12.37;100.00;101338.66;5133708;27;20038;-73
2023/05/09 08:10:29;;;;;;;14.70;9.02;;;;;;;12.45;100.00;101342.34;5133972;27;20039;-74
2023/05/09 08:12:55;;;;;;;15.35;8.40;;;;;;;12.48;100.00;101327.84;5133969;27;20030;-74
2023/05/09 08:15:21;;;;;;;19.50;9.82;;;;;;;12.48;100.00;101328.72;5134224;28;20079;-73
2023/05/09 08:17:46;;;;;;;17.13;10.43;;;;;;;12.53;100.00;101328.28;5133898;27;20031;-73
2023/05/09 08:20:12;;;;;;;15.82;9.75;;;;;;;12.53;100.00;101322.94;5133919;27;20059;-72
2023/05/09 08:22:40;;;;;;;16.58;9.80;;;;;;;12.56;100.00;101320.00;5134098;27;20070;-73
2023/05/09 08:25:07;;;;;;;17.88;9.65;;;;;;;12.53;100.00;101314.94;5133832;27;20110;-73
2023/05/09 08:27:32;;;;;;;17.20;10.27;;;;;;;12.59;100.00;101319.72;5135403;27;20031;-73
2023/05/09 08:29:58;;;;;;;18.75;10.07;;;;;;;12.68;100.00;101310.84;5137952;27;20073;-73
2023/05/09 08:32:23;;;;;;;15.85;10.20;;;;;;;12.76;100.00;101310.16;5138177;27;20034;-73
2023/05/09 08:34:49;;;;;;;17.30;10.48;;;;;;;12.78;100.00;101304.66;5138110;27;20039;-73
2023/05/09 08:37:14;;;;;;;16.75;10.93;;;;;;;12.81;100.00;101310.56;5138125;27;20031;-73
2023/05/09 08:39:40;;;;;;;16.27;10.90;;;;;;;12.81;100.00;101304.41;5138109;27;20167;-73
2023/05/09 08:42:07;;;;;;;15.88;10.48;;;;;;;12.82;100.00;101300.72;5138099;27;20035;-72
2023/05/09 08:44:32;;;;;;;17.42;10.20;;;;;;;12.79;100.00;101299.19;5137907;27;20034;-72
2023/05/09 08:46:59;;;;;;;15.30;10.48;;;;;;;12.78;100.00;101297.50;5137624;27;20023;-73
2023/05/09 08:49:25;;;;;;;16.00;10.23;;;;;;;12.81;100.00;101299.91;5137818;27;20027;-73
2023/05/09 08:51:51;;;;;;;13.50;10.40;;;;;;;12.83;100.00;101289.91;5137909;27;20035;-73
2023/05/09 08:54:18;;;;;;;16.48;10.80;;;;;;;12.85;100.00;101297.78;5136245;27;20032;-73
2023/05/09 08:56:43;;;;;;;17.38;10.90;;;;;;;12.85;100.00;101289.75;5136658;27;20058;-73
2023/05/09 08:59:09;;;;;;;16.92;10.45;;;;;;;12.82;100.00;101290.03;5138088;27;20058;-72
2023/05/09 09:01:35;;;;;;;20.25;12.90;;;;;;;12.81;100.00;101283.03;5137905;27;20043;-72
2023/05/09 09:04:04;;;;;;;18.52;12.40;;;;;;;12.80;100.00;101287.53;5137609;27;20335;-72
2023/05/09 09:06:32;;;;;;;18.88;11.85;;;;;;;12.82;100.00;101288.25;5137389;27;20023;-73
2023/05/09 09:08:58;;;;;;;16.02;11.45;;;;;;;12.84;100.00;101282.75;5137010;27;20042;-73
2023/05/09 09:11:23;;;;;;;17.52;11.73;;;;;;;12.84;100.00;101294.25;5137227;27;20027;-74
2023/05/09 09:13:51;;;;;;;17.33;11.45;;;;;;;12.87;100.00;101282.47;5136976;27;20118;-74
2023/05/09 09:16:19;;;;;;;16.83;11.65;;;;;;;12.85;100.00;101289.75;5135755;27;20079;-73
2023/05/09 09:18:45;;;;;;;15.02;12.00;;;;;;;12.84;100.00;101278.25;5136924;27;20619;-74
2023/05/09 09:21:14;;;;;;;17.65;12.02;;;;;;;12.82;100.00;101282.03;5136740;27;20027;-73
2023/05/09 09:23:41;;;;;;;23.38;12.10;;;;;;;12.79;100.00;101282.31;5136827;27;20023;-74
2023/05/09 09:26:08;;;;;;;16.10;11.50;;;;;;;12.78;100.00;101272.63;5136476;27;20044;-73
2023/05/09 09:28:33;;;;;;;19.45;12.23;;;;;;;12.71;100.00;101277.69;5136340;27;20027;-74
2023/05/09 09:30:59;;;;;;;17.75;11.55;;;;;;;12.68;100.00;101272.66;5136773;27;20034;-72
2023/05/09 09:33:26;;;;;;;17.58;12.00;;;;;;;12.62;100.00;101266.03;5136462;27;20429;-73
2023/05/09 09:35:53;;;;;;;19.73;12.38;;;;;;;12.66;100.00;101272.78;5137089;27;20106;-73
2023/05/09 09:38:22;;;;;;;17.88;11.63;;;;;;;12.70;100.00;101268.00;5135569;27;20118;-73
2023/05/09 09:40:54;;;;;;;18.25;11.98;;;;;;;12.72;100.00;101265.19;5135525;27;20439;-73
2023/05/09 09:43:26;;;;;;;15.60;11.82;;;;;;;12.71;100.00;101264.34;5136896;27;20445;-73
2023/05/09 09:45:52;;;;;;;22.00;12.38;;;;;;;12.69;100.00;101261.81;5137208;27;20119;-73
2023/05/09 09:48:23;;;;;;;17.02;12.20;;;;;;;12.73;100.00;101261.53;5135838;27;20027;-73
2023/05/09 09:50:48;;;;;;;17.00;12.07;;;;;;;12.75;100.00;101268.44;5136007;27;20106;-72
2023/05/09 09:53:13;;;;;;;18.23;12.95;;;;;;;12.72;100.00;101260.69;5135871;27;20164;-73
2023/05/09 09:55:49;;;;;;;18.10;12.60;;;;;;;12.70;100.00;101258.19;5135637;27;20106;-72
2023/05/09 09:58:20;;;;;;;18.00;11.93;;;;;;;12.72;100.00;101265.19;5135904;27;20051;-73
2023/05/09 10:00:47;;;;;;;16.95;11.27;;;;;;;12.72;100.00;101257.16;5135640;27;20050;-73
2023/05/09 10:03:16;;;;;;;18.80;12.98;;;;;;;12.72;100.00;101254.50;5135942;27;20065;-73
2023/05/09 10:05:41;;;;;;;16.40;12.10;;;;;;;12.75;100.00;101246.22;5135942;27;20035;-73
2023/05/09 10:08:08;;;;;;;15.98;11.82;;;;;;;12.78;100.00;101254.78;5135820;27;20490;-73
2023/05/09 10:10:34;;;;;;;13.93;12.00;;;;;;;12.75;100.00;101254.22;5135224;27;20027;-73
2023/05/09 10:13:09;;;;;;;15.23;11.85;;;;;;;12.81;100.00;101251.00;5135594;27;20090;-73
2023/05/09 10:15:38;;;;;;;16.70;12.23;;;;;;;12.85;100.00;101247.03;5135499;27;20027;-74
2023/05/09 10:18:06;;;;;;;14.30;10.73;;;;;;;12.86;100.00;101243.38;5135532;27;20464;-73
2023/05/09 10:20:33;;;;;;;19.85;11.25;;;;;;;12.84;100.00;101245.38;5117085;27;20042;-73
2023/05/09 10:23:01;;;;;;;19.05;11.68;;;;;;;12.87;100.00;101239.72;5135529;27;20087;-73
2023/05/09 10:25:35;;;;;;;22.33;13.07;;;;;;;12.86;100.00;101243.38;5135085;27;20076;-72
2023/05/09 10:28:07;;;;;;;16.63;12.25;;;;;;;12.92;100.00;101239.31;5134129;27;20420;-71
2023/05/09 10:30:38;;;;;;;20.00;12.35;;;;;;;12.93;100.00;101230.28;5135603;27;20031;-73
2023/05/09 10:33:11;;;;;;;15.25;11.70;;;;;;;12.94;100.00;101231.97;5140552;27;20042;-73
2023/05/09 10:35:44;;;;;;;23.10;13.32;;;;;;;12.99;100.00;101235.91;5135585;27;20035;-73
2023/05/09 10:38:11;;;;;;;18.15;11.93;;;;;;;12.99;100.00;101227.88;5135138;27;20027;-74
2023/05/09 10:40:39;;;;;;;16.92;12.10;;;;;;;12.96;100.00;101222.84;5134634;27;20076;-73
2023/05/09 10:43:06;;;;;;;17.38;11.40;;;;;;;12.95;100.00;101218.47;5135001;27;20030;-73
2023/05/09 10:45:32;;;;;;;16.17;11.10;;;;;;;12.91;100.00;101208.22;5134804;27;20049;-73
2023/05/09 10:47:58;;;;;;;17.00;11.63;;;;;;;12.93;100.00;101209.78;5134807;27;20034;-72
2023/05/09 10:50:24;;;;;;;15.30;11.85;;;;;;;12.95;100.00;101205.13;5133764;27;20035;-76
2023/05/09 10:53:14;;;;;;;13.60;11.07;;;;;;;12.96;100.00;101209.47;5134408;27;20031;-72
2023/05/09 10:55:45;;;;;;;16.63;10.95;;;;;;;12.98;100.00;101204.81;5135382;27;20024;-73
2023/05/09 10:58:28;;;;;;;18.63;11.95;;;;;;;13.02;100.00;101202.72;5134151;27;20558;-73
2023/05/09 11:00:58;;;;;;;14.43;10.50;;;;;;;13.14;100.00;101200.72;5135112;27;20088;-74